Terminal Aerodrome Forecast
Issued by NWS

Home | Current Version | Previous Version | Text Only | Print | Product List | Glossary On
Versions: 1 2 3 4 5 6 7 8 9 10 11 12 13 14 15
000
FTUS42 KILM 191700
TAFCRE
TAF
KCRE 191735Z 1918/2018 07012G23KT P6SM BKN030 BKN150
     FM200000 07007KT P6SM SCT030
     FM200800 07006KT P6SM VCSH SCT020 BKN100
     FM201200 06008KT 4SM -SHRA BKN020=

USA.gov is the U.S. government's official web portal to all federal, state and local government web resources and services.